Time;durP1;ratioP1;P1;durP2;ratioP2;P2;SDS_P1;SDS_P2;PMS_P1;PMS_P2;Temp;Humidity;BMP_temperature;BMP_pressure;BME280_temperature;BME280_humidity;BME280_pressure;Samples;Min_cycle;Max_cycle;Signal;HPM_P1;HPM_P2
2023/12/09 00:02:03;;;;;;;12.30;2.17;;;9.00;99.90;;;;;;6277757;28;20059;-91
2023/12/09 00:05:04;;;;;;;15.38;2.28;;;9.00;99.90;;;;;;6252049;28;20132;-91
2023/12/09 00:08:07;;;;;;;13.15;2.20;;;8.90;99.90;;;;;;6276378;28;20056;-92
2023/12/09 00:11:09;;;;;;;14.60;2.00;;;9.00;99.90;;;;;;6252576;28;20082;-91
2023/12/09 00:14:10;;;;;;;13.77;2.00;;;9.00;99.90;;;;;;6271129;28;20076;-91
2023/12/09 00:17:12;;;;;;;11.38;1.80;;;8.90;99.90;;;;;;6252777;28;20576;-93
2023/12/09 00:20:14;;;;;;;11.13;1.65;;;8.80;99.90;;;;;;6265348;28;20049;-92
2023/12/09 00:23:16;;;;;;;12.52;2.05;;;8.80;99.90;;;;;;6271666;28;20492;-92
2023/12/09 00:26:18;;;;;;;10.18;2.03;;;8.80;99.90;;;;;;6249758;28;20791;-91
2023/12/09 00:29:20;;;;;;;9.75;2.13;;;8.80;99.90;;;;;;6270178;28;20056;-92
2023/12/09 00:32:22;;;;;;;11.02;1.85;;;8.90;99.90;;;;;;6226556;28;20490;-92
2023/12/09 00:35:24;;;;;;;9.77;1.50;;;9.00;99.90;;;;;;6275668;28;20409;-91
2023/12/09 00:38:25;;;;;;;9.70;1.48;;;9.00;99.90;;;;;;6251660;28;20053;-92
2023/12/09 00:41:27;;;;;;;11.90;1.60;;;9.00;99.90;;;;;;6275492;28;20057;-92
2023/12/09 00:44:30;;;;;;;11.13;1.63;;;8.90;99.90;;;;;;6258491;28;20064;-92
2023/12/09 00:47:32;;;;;;;14.15;2.03;;;8.80;99.90;;;;;;6248924;28;20056;-92
2023/12/09 00:50:33;;;;;;;11.35;2.20;;;8.80;99.90;;;;;;6273467;28;20135;-92
2023/12/09 00:53:35;;;;;;;10.50;1.83;;;8.80;99.90;;;;;;6251907;28;20049;-92
2023/12/09 00:56:37;;;;;;;10.77;1.70;;;8.80;99.90;;;;;;6274804;28;20057;-92
2023/12/09 00:59:39;;;;;;;7.65;1.65;;;8.80;99.90;;;;;;6248204;28;20207;-92
2023/12/09 01:02:40;;;;;;;9.55;1.77;;;8.70;99.90;;;;;;6287727;28;20041;-92
2023/12/09 01:05:42;;;;;;;11.07;1.92;;;8.60;99.90;;;;;;6257886;28;20107;-92
2023/12/09 01:08:44;;;;;;;16.08;2.08;;;8.50;99.90;;;;;;6279382;28;20644;-91
2023/12/09 01:11:46;;;;;;;13.55;1.70;;;8.60;99.90;;;;;;6254256;28;20053;-93
2023/12/09 01:14:48;;;;;;;8.93;1.95;;;8.50;99.90;;;;;;6276295;28;20049;-92
2023/12/09 01:17:50;;;;;;;15.80;2.22;;;8.50;99.90;;;;;;6254285;28;20049;-91
2023/12/09 01:20:51;;;;;;;14.77;1.98;;;8.40;99.90;;;;;;6232773;28;20049;-92
2023/12/09 01:23:53;;;;;;;9.35;1.70;;;8.30;99.90;;;;;;6284428;28;20045;-90
2023/12/09 01:26:55;;;;;;;18.45;2.42;;;8.30;99.90;;;;;;6268680;28;20041;-91
2023/12/09 01:29:57;;;;;;;12.18;2.38;;;8.30;99.90;;;;;;6279030;28;20154;-91
2023/12/09 01:32:59;;;;;;;8.55;1.60;;;8.40;99.90;;;;;;6254210;28;20540;-91
2023/12/09 01:36:01;;;;;;;18.83;2.28;;;8.50;99.90;;;;;;6278557;28;20049;-91
2023/12/09 01:39:02;;;;;;;16.73;2.17;;;8.50;99.90;;;;;;6247209;28;20124;-92
2023/12/09 01:42:04;;;;;;;13.88;2.28;;;8.50;99.90;;;;;;6278522;28;20485;-92
2023/12/09 01:45:06;;;;;;;15.23;1.98;;;8.40;99.90;;;;;;6265795;28;20084;-91
2023/12/09 01:48:08;;;;;;;18.08;2.53;;;8.40;99.90;;;;;;6252532;28;20132;-91
2023/12/09 01:51:10;;;;;;;16.77;2.30;;;8.30;99.90;;;;;;6278792;28;20053;-91
2023/12/09 01:54:11;;;;;;;13.48;2.10;;;8.20;99.90;;;;;;6251767;28;20477;-90
2023/12/09 01:57:13;;;;;;;14.98;2.58;;;8.20;99.90;;;;;;6277160;28;20133;-91
2023/12/09 02:00:15;;;;;;;15.73;2.50;;;8.30;99.90;;;;;;6250696;28;20059;-91
2023/12/09 02:03:18;;;;;;;19.15;2.40;;;8.30;99.90;;;;;;6277906;28;20051;-90
2023/12/09 02:06:20;;;;;;;15.43;2.30;;;8.30;99.90;;;;;;6253675;28;20501;-90
2023/12/09 02:09:22;;;;;;;19.08;2.35;;;8.30;99.90;;;;;;6277262;28;20206;-90
2023/12/09 02:12:24;;;;;;;14.75;1.88;;;8.30;99.90;;;;;;6253067;28;20486;-91
2023/12/09 02:15:26;;;;;;;16.27;2.58;;;8.40;99.90;;;;;;6279150;28;20131;-92
2023/12/09 02:18:28;;;;;;;14.45;2.47;;;8.40;99.90;;;;;;6232660;28;20045;-93
2023/12/09 02:21:30;;;;;;;18.30;2.88;;;8.40;99.90;;;;;;6294950;28;20064;-92
2023/12/09 02:24:31;;;;;;;17.90;2.30;;;8.50;99.90;;;;;;6255525;28;20041;-91
2023/12/09 02:27:33;;;;;;;15.32;2.50;;;8.40;99.90;;;;;;6257704;28;20117;-92
2023/12/09 02:30:35;;;;;;;17.27;2.80;;;8.50;99.90;;;;;;6276178;28;20084;-92
2023/12/09 02:33:37;;;;;;;20.20;2.75;;;8.60;99.90;;;;;;6232763;28;20058;-92
2023/12/09 02:36:39;;;;;;;21.17;2.42;;;8.60;99.90;;;;;;6288015;28;20064;-91
2023/12/09 02:39:40;;;;;;;24.58;3.20;;;8.70;99.90;;;;;;6285188;28;20506;-93
2023/12/09 02:42:43;;;;;;;19.77;3.28;;;8.70;99.90;;;;;;6264312;28;20056;-92
2023/12/09 02:45:46;;;;;;;23.33;3.28;;;8.80;99.90;;;;;;6273667;28;20110;-93
2023/12/09 02:48:47;;;;;;;16.15;2.90;;;8.80;99.90;;;;;;6289578;28;20049;-92
2023/12/09 02:51:49;;;;;;;20.65;3.22;;;8.90;99.90;;;;;;6266074;28;20049;-94
2023/12/09 02:54:51;;;;;;;23.55;3.15;;;8.90;99.90;;;;;;6286422;28;20053;-94
2023/12/09 02:57:52;;;;;;;22.98;3.45;;;8.80;99.90;;;;;;6267191;28;20067;-93
2023/12/09 03:00:54;;;;;;;17.27;2.90;;;8.90;99.90;;;;;;6282209;28;20063;-92
2023/12/09 03:03:56;;;;;;;25.17;3.38;;;8.90;99.90;;;;;;6259766;28;20370;-92
2023/12/09 03:06:58;;;;;;;25.20;3.20;;;9.00;99.90;;;;;;6267409;28;20057;-93
2023/12/09 03:10:00;;;;;;;15.23;2.47;;;9.00;99.90;;;;;;6287411;28;20112;-93
2023/12/09 03:13:01;;;;;;;22.58;3.55;;;9.10;99.90;;;;;;6270718;28;20060;-92
2023/12/09 03:16:03;;;;;;;14.82;2.80;;;9.10;99.90;;;;;;6257457;28;20054;-92
2023/12/09 03:19:05;;;;;;;21.95;2.75;;;9.20;99.90;;;;;;6284969;28;20088;-93
2023/12/09 03:22:07;;;;;;;22.20;3.15;;;9.20;99.90;;;;;;6261072;28;20400;-93
2023/12/09 03:25:08;;;;;;;23.70;3.40;;;9.30;99.90;;;;;;6277159;28;20476;-92
2023/12/09 03:28:10;;;;;;;20.13;3.17;;;9.40;99.90;;;;;;6256635;28;20052;-93
2023/12/09 03:31:12;;;;;;;16.70;2.35;;;9.40;99.90;;;;;;6276679;28;20049;-93
2023/12/09 03:34:13;;;;;;;22.70;2.65;;;9.50;99.90;;;;;;6252891;28;20061;-92
2023/12/09 03:37:15;;;;;;;19.52;3.20;;;9.50;99.90;;;;;;6275207;28;20049;-91
2023/12/09 03:40:17;;;;;;;17.30;2.70;;;9.60;99.90;;;;;;6260539;28;20053;-91
2023/12/09 03:43:19;;;;;;;19.05;2.67;;;9.60;99.90;;;;;;6272386;28;20053;-91
2023/12/09 03:46:20;;;;;;;17.45;2.45;;;9.60;99.90;;;;;;6255090;28;20068;-91
2023/12/09 03:49:22;;;;;;;18.73;2.83;;;9.60;99.90;;;;;;6278078;28;20234;-90
2023/12/09 03:52:24;;;;;;;17.50;2.72;;;9.50;99.90;;;;;;6252153;28;20057;-89
2023/12/09 03:55:26;;;;;;;21.02;2.75;;;9.50;99.90;;;;;;6274134;28;20056;-91
2023/12/09 03:58:28;;;;;;;19.77;2.20;;;9.50;99.90;;;;;;6255797;28;20055;-91
2023/12/09 04:01:30;;;;;;;16.95;2.58;;;9.40;99.90;;;;;;6289012;22;20059;-90
2023/12/09 04:04:31;;;;;;;18.50;2.42;;;9.40;99.90;;;;;;6269249;28;20112;-90
2023/12/09 04:07:33;;;;;;;12.38;2.10;;;9.40;99.90;;;;;;6294599;28;20057;-90
2023/12/09 04:10:35;;;;;;;14.15;2.35;;;9.30;99.90;;;;;;6271084;28;20057;-91
2023/12/09 04:13:37;;;;;;;19.05;2.63;;;9.30;99.90;;;;;;6280519;28;20054;-89
2023/12/09 04:16:38;;;;;;;13.63;2.28;;;9.30;99.90;;;;;;6275502;28;20057;-89
2023/12/09 04:19:40;;;;;;;18.73;2.30;;;9.30;99.90;;;;;;6280045;28;20063;-88
2023/12/09 04:22:42;;;;;;;14.50;2.20;;;9.20;99.90;;;;;;6293926;28;20102;-88
2023/12/09 04:25:44;;;;;;;17.83;2.53;;;9.20;99.90;;;;;;6269774;28;20049;-89
2023/12/09 04:28:46;;;;;;;18.15;2.83;;;9.10;99.90;;;;;;6278084;28;20056;-89
2023/12/09 04:31:48;;;;;;;18.13;2.30;;;9.10;99.90;;;;;;6282515;28;20431;-89
2023/12/09 04:34:49;;;;;;;13.10;2.30;;;9.10;99.90;;;;;;6297863;28;20067;-90
2023/12/09 04:37:51;;;;;;;19.15;2.65;;;9.00;99.90;;;;;;6273666;28;20055;-90
2023/12/09 04:40:53;;;;;;;18.70;2.53;;;9.00;99.90;;;;;;6288576;28;20049;-90
2023/12/09 04:43:55;;;;;;;17.67;2.65;;;9.10;99.90;;;;;;6279861;28;20049;-91
2023/12/09 04:46:56;;;;;;;13.13;2.38;;;9.00;99.90;;;;;;6295040;28;20071;-90
2023/12/09 04:49:58;;;;;;;16.73;2.70;;;9.10;99.90;;;;;;6272526;28;20396;-90
2023/12/09 04:52:59;;;;;;;19.10;2.83;;;9.10;99.90;;;;;;6289992;28;20056;-89
2023/12/09 04:56:01;;;;;;;11.20;2.65;;;9.10;99.90;;;;;;6301460;28;20045;-89
2023/12/09 04:59:03;;;;;;;16.88;2.58;;;9.10;99.90;;;;;;6285848;28;20056;-90
2023/12/09 05:02:04;;;;;;;15.52;2.63;;;9.10;99.90;;;;;;6270053;28;20061;-90
2023/12/09 05:05:06;;;;;;;12.88;2.25;;;9.10;99.90;;;;;;6300277;28;20530;-88
2023/12/09 05:08:08;;;;;;;16.67;2.50;;;9.20;99.90;;;;;;6275407;28;20068;-90
2023/12/09 05:11:09;;;;;;;12.95;2.35;;;9.20;99.90;;;;;;6300048;28;20047;-88
2023/12/09 05:14:11;;;;;;;18.00;2.30;;;9.20;99.90;;;;;;6290831;28;20049;-87
2023/12/09 05:17:13;;;;;;;11.07;2.25;;;9.20;99.90;;;;;;6275849;28;20057;-88
2023/12/09 05:20:14;;;;;;;16.90;2.47;;;9.20;99.90;;;;;;6298747;28;20055;-86
2023/12/09 05:23:16;;;;;;;12.15;2.38;;;9.10;99.90;;;;;;6273960;28;20041;-89
2023/12/09 05:26:18;;;;;;;15.05;2.50;;;9.20;99.90;;;;;;6296343;28;20190;-88
2023/12/09 05:29:20;;;;;;;14.55;2.60;;;9.20;99.90;;;;;;6270706;28;20138;-87
2023/12/09 05:32:21;;;;;;;18.92;2.60;;;9.20;99.90;;;;;;6293979;28;20052;-86
2023/12/09 05:35:23;;;;;;;12.52;1.95;;;9.20;99.90;;;;;;6250671;28;20050;-86
2023/12/09 05:38:25;;;;;;;19.58;2.22;;;9.20;99.90;;;;;;6292919;28;20483;-84
2023/12/09 05:41:26;;;;;;;14.48;2.42;;;9.20;99.90;;;;;;6266793;28;20060;-84
2023/12/09 05:44:28;;;;;;;18.27;2.75;;;9.20;99.90;;;;;;6290984;28;20044;-85
2023/12/09 05:47:29;;;;;;;11.93;2.63;;;9.20;99.90;;;;;;6269270;28;20060;-84
2023/12/09 05:50:31;;;;;;;15.18;2.55;;;9.10;99.90;;;;;;6296578;28;20056;-83
2023/12/09 05:53:33;;;;;;;12.27;2.08;;;9.10;99.90;;;;;;6272299;28;20060;-83
2023/12/09 05:56:34;;;;;;;13.05;2.20;;;9.20;99.90;;;;;;6296359;28;20060;-84
2023/12/09 05:59:36;;;;;;;12.23;2.53;;;9.20;99.90;;;;;;6268539;28;20044;-84
2023/12/09 06:02:37;;;;;;;13.77;2.00;;;9.20;99.90;;;;;;6272951;28;20057;-84
2023/12/09 06:05:39;;;;;;;12.68;1.98;;;9.20;99.90;;;;;;6296180;28;20044;-84
2023/12/09 06:08:41;;;;;;;14.73;2.60;;;9.20;99.90;;;;;;6269064;28;20068;-83
2023/12/09 06:11:42;;;;;;;13.82;2.38;;;9.30;99.90;;;;;;6296103;28;20051;-83
2023/12/09 06:14:44;;;;;;;9.98;2.10;;;9.30;99.90;;;;;;6270899;28;20064;-84
2023/12/09 06:17:45;;;;;;;11.32;1.92;;;9.20;99.90;;;;;;6296195;28;20418;-83
2023/12/09 06:20:47;;;;;;;9.40;1.42;;;9.30;99.90;;;;;;6270247;28;20060;-84
2023/12/09 06:23:49;;;;;;;9.20;2.15;;;9.30;99.90;;;;;;6295575;28;20055;-83
2023/12/09 06:26:50;;;;;;;7.63;1.40;;;9.30;99.90;;;;;;6271949;28;20057;-83
2023/12/09 06:29:52;;;;;;;8.23;1.60;;;9.20;99.90;;;;;;6294077;28;20048;-84
2023/12/09 06:32:54;;;;;;;10.07;1.60;;;9.20;99.90;;;;;;6269886;28;20049;-82
2023/12/09 06:35:56;;;;;;;6.25;1.55;;;9.20;99.90;;;;;;6295584;28;20051;-82
2023/12/09 06:38:58;;;;;;;8.98;1.30;;;9.20;99.90;;;;;;6271390;28;20507;-82
2023/12/09 06:42:00;;;;;;;7.43;1.10;;;9.20;99.90;;;;;;6279035;28;20460;-83
2023/12/09 06:45:01;;;;;;;4.53;1.20;;;9.30;99.90;;;;;;6293488;28;20061;-82
2023/12/09 06:48:03;;;;;;;4.00;0.90;;;9.30;99.90;;;;;;6295066;28;20074;-84
2023/12/09 06:51:08;;;;;;;9.25;1.38;;;9.30;99.90;;;;;;6270158;28;20056;-82
2023/12/09 06:54:10;;;;;;;7.22;1.27;;;9.30;99.90;;;;;;6294401;28;20067;-82
2023/12/09 06:57:12;;;;;;;5.68;1.63;;;9.40;99.90;;;;;;6270670;28;20075;-83
2023/12/09 07:00:14;;;;;;;8.77;1.33;;;9.40;99.90;;;;;;6286839;28;20142;-83
2023/12/09 07:03:16;;;;;;;6.25;1.00;;;9.40;99.90;;;;;;6270882;28;20220;-83
2023/12/09 07:06:18;;;;;;;5.13;1.10;;;9.40;99.90;;;;;;6294649;28;20052;-83
2023/12/09 07:09:19;;;;;;;3.97;1.08;;;9.40;99.90;;;;;;6252017;28;20416;-83
2023/12/09 07:12:21;;;;;;;4.93;1.08;;;9.40;99.90;;;;;;6293652;28;20190;-82
2023/12/09 07:15:23;;;;;;;5.47;1.17;;;9.40;99.90;;;;;;6270803;28;20397;-83
2023/12/09 07:18:24;;;;;;;6.60;1.50;;;9.50;99.90;;;;;;6267549;28;20053;-83
2023/12/09 07:21:27;;;;;;;5.70;1.13;;;9.40;99.90;;;;;;6294186;28;20113;-83
2023/12/09 07:24:29;;;;;;;7.90;1.50;;;9.50;99.90;;;;;;6269185;28;20179;-83
2023/12/09 07:27:30;;;;;;;4.43;0.98;;;9.50;99.90;;;;;;6279159;28;20060;-82
2023/12/09 07:30:32;;;;;;;5.90;0.90;;;9.40;99.90;;;;;;6294663;28;20044;-83
2023/12/09 07:33:34;;;;;;;5.97;0.95;;;9.40;99.90;;;;;;6244631;28;20416;-84
2023/12/09 07:36:35;;;;;;;5.03;1.20;;;9.40;99.90;;;;;;6308771;28;20049;-82
2023/12/09 07:39:37;;;;;;;5.00;1.10;;;9.40;99.90;;;;;;6268388;28;20057;-82
2023/12/09 07:42:39;;;;;;;3.03;0.88;;;9.40;99.90;;;;;;6288715;28;20055;-81
2023/12/09 07:45:41;;;;;;;4.22;0.70;;;9.40;99.90;;;;;;6266973;28;20052;-83
2023/12/09 07:48:42;;;;;;;4.40;0.90;;;9.40;99.90;;;;;;6245326;28;20804;-81
2023/12/09 07:51:45;;;;;;;4.00;1.00;;;9.50;99.90;;;;;;6277277;28;20139;-81
2023/12/09 07:54:47;;;;;;;4.47;0.90;;;9.40;99.90;;;;;;6293808;28;20057;-82
2023/12/09 07:57:49;;;;;;;2.15;0.70;;;9.40;99.90;;;;;;6272431;28;20178;-81
2023/12/09 08:00:50;;;;;;;4.22;0.70;;;9.40;99.90;;;;;;6281133;28;20061;-82
2023/12/09 08:03:52;;;;;;;2.05;0.70;;;9.50;99.90;;;;;;6269647;28;20526;-81
2023/12/09 08:06:54;;;;;;;2.53;0.80;;;9.50;99.90;;;;;;6287233;28;20131;-81
2023/12/09 08:09:55;;;;;;;2.45;0.85;;;9.50;99.90;;;;;;6261802;28;20052;-81
2023/12/09 08:12:57;;;;;;;4.85;0.90;;;9.50;99.90;;;;;;6287651;28;20558;-83
2023/12/09 08:15:59;;;;;;;2.47;0.80;;;9.50;99.90;;;;;;6269434;28;20048;-81
2023/12/09 08:19:00;;;;;;;3.22;0.70;;;9.50;99.90;;;;;;6292758;28;20063;-84
2023/12/09 08:22:02;;;;;;;3.28;0.70;;;9.50;99.90;;;;;;6291476;28;20056;-81
2023/12/09 08:25:04;;;;;;;3.17;0.60;;;9.50;99.90;;;;;;6269173;28;20045;-82
2023/12/09 08:28:09;;;;;;;3.33;0.77;;;9.60;99.90;;;;;;6282271;28;20714;-81
2023/12/09 08:31:10;;;;;;;3.03;0.70;;;9.60;99.90;;;;;;6266929;28;20057;-84
2023/12/09 08:34:12;;;;;;;1.92;0.70;;;9.60;99.90;;;;;;6252855;28;20147;-84
2023/12/09 08:37:14;;;;;;;4.18;0.90;;;9.60;99.90;;;;;;6292998;28;20418;-82
2023/12/09 08:40:15;;;;;;;3.67;0.77;;;9.60;99.90;;;;;;6267286;28;20049;-84
2023/12/09 08:43:17;;;;;;;3.42;0.75;;;9.60;99.90;;;;;;6283603;28;20089;-86
2023/12/09 08:46:18;;;;;;;2.72;0.80;;;9.60;99.90;;;;;;6258414;28;20048;-83
2023/12/09 08:49:20;;;;;;;2.40;0.63;;;9.70;99.90;;;;;;6268315;28;20064;-84
2023/12/09 08:52:22;;;;;;;4.53;0.70;;;9.70;99.90;;;;;;6253058;28;20516;-84
2023/12/09 08:55:23;;;;;;;2.13;0.65;;;9.70;99.90;;;;;;6289832;28;20049;-85
2023/12/09 08:58:25;;;;;;;3.17;0.60;;;9.80;99.90;;;;;;6274951;28;20093;-85
2023/12/09 09:01:26;;;;;;;3.05;0.60;;;9.80;99.90;;;;;;6270569;28;20057;-85
2023/12/09 09:04:28;;;;;;;1.35;0.40;;;9.80;99.90;;;;;;6276336;28;20060;-82
2023/12/09 09:07:30;;;;;;;1.45;0.47;;;9.90;99.90;;;;;;6286000;28;20099;-84
2023/12/09 09:10:32;;;;;;;1.75;0.60;;;9.90;99.90;;;;;;6290357;28;20063;-83
2023/12/09 09:13:33;;;;;;;1.30;0.52;;;9.90;99.90;;;;;;6280043;28;20053;-84
2023/12/09 09:16:35;;;;;;;2.38;0.40;;;9.90;99.90;;;;;;6274810;28;20130;-84
2023/12/09 09:19:37;;;;;;;1.67;0.50;;;9.90;99.90;;;;;;6256683;28;20073;-83
2023/12/09 09:22:41;;;;;;;3.13;0.70;;;9.90;99.90;;;;;;6294585;28;20053;-82
2023/12/09 09:25:47;;;;;;;1.23;0.40;;;9.90;99.90;;;;;;6271476;28;20060;-83
2023/12/09 09:28:49;;;;;;;1.00;0.40;;;9.90;99.90;;;;;;6282916;28;20063;-83
2023/12/09 09:31:51;;;;;;;1.58;0.45;;;9.90;99.90;;;;;;6296272;28;20052;-83
2023/12/09 09:34:52;;;;;;;2.40;0.30;;;9.90;99.90;;;;;;6295441;28;20147;-83
2023/12/09 09:37:54;;;;;;;2.72;0.50;;;9.90;99.90;;;;;;6297338;28;20091;-84
2023/12/09 09:40:56;;;;;;;1.95;0.40;;;9.90;99.90;;;;;;6295576;28;20056;-84
2023/12/09 09:43:58;;;;;;;0.88;0.30;;;9.90;99.90;;;;;;6286248;28;20515;-85
2023/12/09 09:47:00;;;;;;;1.95;0.40;;;10.00;99.90;;;;;;6283527;28;20564;-84
2023/12/09 09:50:02;;;;;;;1.17;0.43;;;9.90;99.90;;;;;;6271008;28;20067;-82
2023/12/09 09:53:04;;;;;;;1.23;0.40;;;10.00;99.90;;;;;;6296272;28;20149;-83
2023/12/09 09:56:06;;;;;;;1.35;0.30;;;10.00;99.90;;;;;;6267243;28;20514;-85
2023/12/09 09:59:07;;;;;;;2.38;0.40;;;10.00;99.90;;;;;;6268026;28;20057;-84
2023/12/09 10:02:09;;;;;;;0.77;0.40;;;10.10;99.90;;;;;;6272069;28;20092;-82
2023/12/09 10:05:10;;;;;;;0.40;0.30;;;10.10;99.90;;;;;;6262279;28;20512;-84
2023/12/09 10:08:12;;;;;;;1.25;0.30;;;10.10;99.90;;;;;;6269592;28;20057;-83
2023/12/09 10:11:14;;;;;;;1.08;0.30;;;10.30;99.90;;;;;;6296036;28;20052;-84
2023/12/09 10:14:16;;;;;;;0.20;0.20;;;10.30;99.90;;;;;;6268739;28;20071;-84
2023/12/09 10:17:17;;;;;;;0.40;0.20;;;10.40;99.90;;;;;;6275576;28;20049;-83
2023/12/09 10:20:19;;;;;;;0.65;0.30;;;10.50;99.90;;;;;;6281095;28;20075;-82
2023/12/09 10:23:22;;;;;;;0.82;0.30;;;10.50;99.90;;;;;;6278141;28;20126;-84
2023/12/09 10:26:23;;;;;;;0.45;0.40;;;10.60;99.90;;;;;;6272733;28;20060;-87
2023/12/09 10:29:25;;;;;;;0.35;0.30;;;10.70;99.90;;;;;;6246983;28;20056;-87
2023/12/09 10:32:27;;;;;;;4.13;0.47;;;10.70;99.90;;;;;;6276587;28;20551;-82
2023/12/09 10:35:29;;;;;;;0.73;0.35;;;10.80;99.90;;;;;;6257206;28;20147;-80
2023/12/09 10:38:31;;;;;;;0.55;0.30;;;10.90;99.90;;;;;;6251191;28;20491;-80
2023/12/09 10:41:33;;;;;;;1.75;0.40;;;10.90;99.90;;;;;;6295717;28;20491;-85
2023/12/09 10:44:35;;;;;;;1.92;0.57;;;11.00;99.90;;;;;;6268819;28;20052;-86
2023/12/09 10:47:36;;;;;;;1.38;0.40;;;11.10;99.90;;;;;;6294754;28;20327;-85
2023/12/09 10:50:38;;;;;;;1.40;0.40;;;11.30;99.90;;;;;;6269962;28;20049;-83
2023/12/09 10:53:40;;;;;;;0.85;0.35;;;11.60;99.90;;;;;;6293457;28;20068;-81
2023/12/09 10:56:41;;;;;;;0.28;0.28;;;11.80;99.90;;;;;;6258760;28;20132;-82
2023/12/09 10:59:43;;;;;;;0.32;0.30;;;11.80;99.90;;;;;;6277627;28;20065;-87
2023/12/09 11:02:44;;;;;;;2.25;0.40;;;11.90;99.90;;;;;;6278236;28;20090;-80
2023/12/09 11:05:46;;;;;;;1.23;0.40;;;12.00;99.90;;;;;;6256004;28;20811;-82
2023/12/09 11:08:48;;;;;;;1.35;0.50;;;12.10;99.90;;;;;;6266869;28;20049;-83
2023/12/09 11:11:50;;;;;;;0.80;0.40;;;12.10;99.90;;;;;;6277482;28;20049;-84
2023/12/09 11:14:51;;;;;;;1.85;0.50;;;12.20;99.90;;;;;;6252821;28;20068;-83
2023/12/09 11:17:53;;;;;;;0.88;0.40;;;12.10;99.90;;;;;;6272346;28;20060;-85
2023/12/09 11:20:57;;;;;;;2.28;0.80;;;12.20;99.90;;;;;;6280145;28;20052;-85
2023/12/09 11:23:58;;;;;;;1.10;0.40;;;12.20;99.90;;;;;;6294071;28;20052;-81
2023/12/09 11:27:00;;;;;;;0.95;0.45;;;12.30;99.90;;;;;;6267855;28;20049;-82
2023/12/09 11:30:02;;;;;;;3.88;0.60;;;12.30;99.90;;;;;;6251176;28;20044;-81
2023/12/09 11:33:04;;;;;;;1.60;0.60;;;12.20;99.90;;;;;;6270709;28;20075;-82
2023/12/09 11:36:06;;;;;;;3.22;1.10;;;12.30;99.90;;;;;;6252297;28;20045;-85
2023/12/09 11:39:09;;;;;;;2.40;0.60;;;12.30;99.90;;;;;;6282654;28;20068;-84
2023/12/09 11:42:11;;;;;;;1.95;0.70;;;12.30;99.90;;;;;;6257418;28;20061;-83
2023/12/09 11:45:13;;;;;;;1.95;0.60;;;12.30;99.90;;;;;;6290860;28;20084;-84
2023/12/09 11:48:15;;;;;;;3.00;0.88;;;12.40;99.90;;;;;;6268911;28;20135;-85
2023/12/09 11:51:16;;;;;;;4.00;1.10;;;12.40;99.90;;;;;;6280659;28;20409;-85
2023/12/09 11:54:18;;;;;;;1.92;0.70;;;12.60;99.90;;;;;;6287503;28;20076;-83
2023/12/09 11:57:20;;;;;;;3.22;0.70;;;12.80;99.90;;;;;;6292009;28;20531;-87
2023/12/09 12:00:21;;;;;;;2.85;0.65;;;12.90;99.90;;;;;;6263005;28;20094;-86
2023/12/09 12:03:23;;;;;;;1.13;0.50;;;12.90;99.90;;;;;;6292157;28;20048;-83
2023/12/09 12:06:25;;;;;;;3.65;0.75;;;13.20;99.90;;;;;;6255869;28;20099;-85
2023/12/09 12:09:27;;;;;;;2.63;0.60;;;13.40;99.90;;;;;;6289679;28;20144;-83
2023/12/09 12:12:28;;;;;;;1.77;0.70;;;13.40;99.90;;;;;;6279152;28;20059;-83
2023/12/09 12:15:30;;;;;;;2.75;0.60;;;13.30;99.90;;;;;;6289888;28;20049;-83
2023/12/09 12:18:32;;;;;;;2.10;0.65;;;13.30;99.90;;;;;;6246727;28;20060;-83
2023/12/09 12:21:34;;;;;;;3.00;0.60;;;13.30;99.90;;;;;;6267786;28;20195;-83
2023/12/09 12:24:36;;;;;;;2.42;0.60;;;13.30;99.90;;;;;;6258225;28;20635;-84
2023/12/09 12:27:37;;;;;;;1.83;0.52;;;13.30;99.90;;;;;;6254883;28;20194;-84
2023/12/09 12:30:40;;;;;;;1.00;0.50;;;13.20;99.90;;;;;;6263351;28;20072;-84
2023/12/09 12:33:41;;;;;;;2.03;0.57;;;13.20;99.90;;;;;;6258866;28;20072;-84
2023/12/09 12:36:43;;;;;;;1.38;0.50;;;13.20;99.90;;;;;;6270107;28;20052;-81
2023/12/09 12:39:45;;;;;;;1.83;0.60;;;13.20;99.90;;;;;;6269583;28;20076;-81
2023/12/09 12:42:47;;;;;;;1.95;0.60;;;13.10;99.90;;;;;;6284888;28;20049;-81
2023/12/09 12:45:48;;;;;;;2.20;0.60;;;13.10;99.90;;;;;;6254021;28;20773;-80
2023/12/09 12:48:50;;;;;;;2.33;0.57;;;13.20;99.90;;;;;;6268222;28;20053;-81
2023/12/09 12:51:53;;;;;;;1.67;0.70;;;13.60;99.90;;;;;;6259962;28;20045;-80
2023/12/09 12:54:55;;;;;;;1.48;0.55;;;13.50;99.90;;;;;;6271006;28;20060;-81
2023/12/09 12:57:56;;;;;;;4.07;0.70;;;13.40;99.90;;;;;;6257962;28;20464;-78
2023/12/09 13:00:58;;;;;;;1.88;0.70;;;13.30;99.90;;;;;;6260177;28;20057;-86
2023/12/09 13:04:00;;;;;;;2.33;0.60;;;13.30;99.90;;;;;;6268428;28;20045;-84
2023/12/09 13:07:02;;;;;;;4.80;1.00;;;13.30;99.90;;;;;;6291745;28;20523;-85
2023/12/09 13:10:04;;;;;;;3.05;0.70;;;13.20;99.90;;;;;;6270098;28;20061;-86
2023/12/09 13:13:06;;;;;;;4.68;0.70;;;13.20;99.90;;;;;;6283862;28;20055;-86
2023/12/09 13:16:08;;;;;;;3.38;0.60;;;13.10;99.90;;;;;;6268225;28;20060;-86
2023/12/09 13:19:10;;;;;;;4.00;0.70;;;13.00;99.90;;;;;;6293605;28;20052;-84
2023/12/09 13:22:12;;;;;;;4.53;0.90;;;13.00;99.90;;;;;;6269105;28;20057;-85
2023/12/09 13:25:13;;;;;;;5.35;1.15;;;12.90;99.90;;;;;;6291798;28;20056;-85
2023/12/09 13:28:16;;;;;;;6.68;1.35;;;12.90;99.90;;;;;;6272206;28;20495;-84
2023/12/09 13:31:17;;;;;;;4.07;1.00;;;12.80;99.90;;;;;;6267716;28;20049;-85
2023/12/09 13:34:19;;;;;;;9.00;1.30;;;12.70;99.90;;;;;;6291223;28;20052;-85
2023/12/09 13:37:21;;;;;;;6.82;1.30;;;12.70;99.90;;;;;;6267119;28;20433;-84
2023/12/09 13:40:23;;;;;;;7.15;1.45;;;12.70;99.90;;;;;;6292278;28;20059;-85
2023/12/09 13:43:24;;;;;;;7.90;1.48;;;12.80;99.90;;;;;;6276134;28;20075;-85
2023/12/09 13:46:26;;;;;;;6.45;1.38;;;12.80;99.90;;;;;;6268589;28;20056;-85
2023/12/09 13:49:28;;;;;;;14.63;1.95;;;12.80;99.90;;;;;;6292986;28;20056;-84
2023/12/09 13:52:29;;;;;;;7.72;1.73;;;12.80;99.90;;;;;;6267509;28;20134;-84
2023/12/09 13:55:31;;;;;;;8.60;1.77;;;12.70;99.90;;;;;;6294056;28;20052;-86
2023/12/09 13:58:33;;;;;;;10.60;1.60;;;12.70;99.90;;;;;;6278460;28;20060;-85
2023/12/09 14:01:34;;;;;;;11.32;2.25;;;12.60;99.90;;;;;;6272565;28;20061;-86
2023/12/09 14:04:36;;;;;;;11.18;2.47;;;12.50;99.90;;;;;;6292509;28;20053;-84
2023/12/09 14:07:39;;;;;;;15.30;2.50;;;12.40;99.90;;;;;;6269188;28;20460;-84
2023/12/09 14:10:41;;;;;;;17.55;3.40;;;12.50;99.90;;;;;;6295692;28;20057;-84
2023/12/09 14:13:43;;;;;;;19.30;3.47;;;12.50;99.90;;;;;;6279396;28;20088;-85
2023/12/09 14:16:46;;;;;;;18.25;3.03;;;12.40;99.90;;;;;;6271616;28;20049;-84
2023/12/09 14:19:47;;;;;;;17.80;3.53;;;12.30;97.90;;;;;;6296430;28;20527;-85
2023/12/09 14:22:49;;;;;;;26.90;3.95;;;12.20;98.00;;;;;;6271209;28;20064;-85
2023/12/09 14:25:51;;;;;;;24.45;3.72;;;12.10;99.90;;;;;;6295659;28;20054;-86
2023/12/09 14:28:54;;;;;;;20.45;3.85;;;12.10;97.90;;;;;;6282800;28;20067;-88
2023/12/09 14:31:56;;;;;;;24.75;3.60;;;12.10;99.90;;;;;;6274822;28;20544;-87
2023/12/09 14:34:57;;;;;;;21.00;3.55;;;12.10;98.40;;;;;;6296747;28;20052;-86
2023/12/09 14:37:59;;;;;;;24.40;3.53;;;12.00;96.70;;;;;;6271786;28;20052;-86
2023/12/09 14:41:01;;;;;;;21.45;3.67;;;12.00;96.20;;;;;;6299506;28;20052;-87
2023/12/09 14:44:03;;;;;;;20.65;3.55;;;11.80;95.10;;;;;;6288611;28;20407;-88
2023/12/09 14:47:10;;;;;;;22.95;4.22;;;11.70;94.30;;;;;;6264787;28;20142;-87
2023/12/09 14:50:12;;;;;;;22.85;4.22;;;11.60;94.50;;;;;;6298311;28;20056;-87
2023/12/09 14:53:17;;;;;;;21.05;3.97;;;11.40;95.90;;;;;;6274870;28;20056;-87
2023/12/09 14:56:19;;;;;;;19.77;3.75;;;11.40;95.30;;;;;;6300016;28;20048;-85
2023/12/09 14:59:20;;;;;;;28.33;4.65;;;11.30;93.20;;;;;;6273286;28;20138;-88
2023/12/09 15:02:22;;;;;;;21.65;3.75;;;11.30;88.10;;;;;;6280417;28;20605;-87
2023/12/09 15:05:25;;;;;;;20.25;3.65;;;11.20;77.30;;;;;;6298513;28;20044;-85
2023/12/09 15:08:27;;;;;;;19.10;3.60;;;11.20;86.40;;;;;;6273401;28;20138;-85
2023/12/09 15:11:28;;;;;;;24.15;3.75;;;11.10;72.80;;;;;;6296393;28;20719;-88
2023/12/09 15:14:30;;;;;;;25.85;4.28;;;11.00;82.90;;;;;;6269477;28;20045;-85
2023/12/09 15:17:32;;;;;;;22.60;4.22;;;11.00;87.00;;;;;;6295888;28;20052;-88
2023/12/09 15:20:37;;;;;;;23.17;3.88;;;10.90;81.70;;;;;;6271355;28;20048;-86
2023/12/09 15:23:38;;;;;;;23.38;4.00;;;10.90;87.80;;;;;;6297599;28;20503;-88
2023/12/09 15:26:40;;;;;;;23.95;4.10;;;10.80;87.00;;;;;;6274378;28;20049;-88
2023/12/09 15:29:42;;;;;;;30.67;4.60;;;10.80;91.60;;;;;;6292639;28;20499;-89
2023/12/09 15:32:44;;;;;;;27.40;4.25;;;10.80;88.10;;;;;;6274865;28;20041;-87
2023/12/09 15:35:47;;;;;;;26.15;4.78;;;10.80;90.70;;;;;;6302442;28;20056;-89
2023/12/09 15:38:48;;;;;;;22.90;4.15;;;10.70;91.40;;;;;;6280583;28;20048;-88
2023/12/09 15:41:51;;;;;;;31.42;4.75;;;10.70;90.90;;;;;;6307252;28;20051;-89
2023/12/09 15:44:53;;;;;;;27.52;4.38;;;10.50;94.40;;;;;;6283466;28;20067;-89
2023/12/09 15:47:54;;;;;;;24.92;3.95;;;10.50;93.50;;;;;;6311150;28;20112;-90